Time;durP1;ratioP1;P1;durP2;ratioP2;P2;SDS_P1;SDS_P2;PMS_P1;PMS_P2;Temp;Humidity;BMP_temperature;BMP_pressure;BME280_temperature;BME280_humidity;BME280_pressure;Samples;Min_cycle;Max_cycle;Signal;HPM_P1;HPM_P2
2023/08/04 00:02:13;;;;;;;;;;;18.30;86.70;;;;;;5058539;28;20393;-75
2023/08/04 00:04:40;;;;;;;;;;;18.40;86.90;;;;;;5056569;28;20397;-75
2023/08/04 00:07:08;;;;;;;;;;;18.30;86.90;;;;;;5059570;28;20652;-75
2023/08/04 00:09:35;;;;;;;;;;;18.30;87.00;;;;;;5055937;28;19972;-74
2023/08/04 00:12:01;;;;;;;;;;;18.30;87.10;;;;;;5060122;28;20489;-75
2023/08/04 00:14:28;;;;;;;;;;;18.30;87.20;;;;;;5061501;28;20011;-76
2023/08/04 00:16:54;;;;;;;;;;;18.30;87.30;;;;;;5061974;28;19928;-75
2023/08/04 00:19:21;;;;;;;;;;;18.30;87.50;;;;;;5059601;28;19939;-75
2023/08/04 00:21:48;;;;;;;;;;;18.30;87.50;;;;;;5060814;28;19933;-75
2023/08/04 00:24:15;;;;;;;;;;;18.30;87.60;;;;;;5060485;28;19933;-75
2023/08/04 00:26:42;;;;;;;;;;;18.30;87.70;;;;;;5059571;28;19928;-75
2023/08/04 00:29:09;;;;;;;;;;;18.20;87.70;;;;;;5057973;28;19939;-75
2023/08/04 00:31:35;;;;;;;;;;;18.20;87.80;;;;;;5071720;28;19929;-75
2023/08/04 00:34:02;;;;;;;;;;;18.20;87.90;;;;;;5077847;28;19933;-75
2023/08/04 00:36:28;;;;;;;;;;;18.20;87.90;;;;;;5069953;28;20415;-75
2023/08/04 00:38:55;;;;;;;;;;;18.20;88.00;;;;;;5057817;28;19963;-75
2023/08/04 00:41:23;;;;;;;;;;;18.20;88.10;;;;;;5062407;28;19928;-75
2023/08/04 00:43:49;;;;;;;;;;;18.20;88.20;;;;;;5059428;28;19932;-75
2023/08/04 00:46:16;;;;;;;;;;;18.20;88.20;;;;;;5058847;28;19928;-75
2023/08/04 00:48:43;;;;;;;;;;;18.20;88.30;;;;;;5060804;28;19928;-75
2023/08/04 00:51:09;;;;;;;;;;;18.10;88.20;;;;;;5059478;28;19928;-75
2023/08/04 00:53:36;;;;;;;;;;;18.10;88.30;;;;;;5060453;28;19933;-75
2023/08/04 00:56:03;;;;;;;;;;;18.10;88.30;;;;;;5065719;28;19925;-75
2023/08/04 00:58:33;;;;;;;;;;;18.10;88.30;;;;;;5063935;28;19932;-75
2023/08/04 01:01:00;;;;;;;;;;;18.10;88.40;;;;;;5059082;28;19932;-75
2023/08/04 01:03:28;;;;;;;;;;;18.00;88.40;;;;;;5062307;28;19940;-75
2023/08/04 01:05:57;;;;;;;;;;;18.10;88.50;;;;;;5060987;28;20027;-75
2023/08/04 01:08:24;;;;;;;;;;;18.10;88.50;;;;;;5058413;28;19928;-75
2023/08/04 01:10:52;;;;;;;;;;;18.00;88.50;;;;;;5059373;28;20302;-74
2023/08/04 01:13:21;;;;;;;;;;;18.10;88.60;;;;;;5063701;28;19928;-75
2023/08/04 01:15:50;;;;;;;;;;;18.10;88.60;;;;;;5056204;28;19932;-74
2023/08/04 01:18:19;;;;;;;;;;;18.00;88.60;;;;;;5065587;28;19935;-75
2023/08/04 01:20:45;;;;;;;;;;;18.00;88.60;;;;;;5060992;28;19935;-75
2023/08/04 01:23:13;;;;;;;;;;;18.00;89.40;;;;;;5062202;28;19928;-75
2023/08/04 01:25:40;;;;;;;;;;;18.00;88.60;;;;;;5063724;28;20570;-73
2023/08/04 01:28:10;;;;;;;;;;;18.00;88.70;;;;;;5063226;28;19943;-75
2023/08/04 01:30:37;;;;;;;;;;;18.00;88.70;;;;;;5065122;28;19937;-76
2023/08/04 01:33:04;;;;;;;;;;;18.00;88.70;;;;;;5063386;28;19928;-75
2023/08/04 01:35:30;;;;;;;;;;;18.00;88.80;;;;;;5061828;28;20460;-75
2023/08/04 01:37:57;;;;;;;;;;;17.90;88.70;;;;;;5054996;28;19928;-75
2023/08/04 01:40:25;;;;;;;;;;;18.00;88.80;;;;;;5057070;28;19939;-75
2023/08/04 01:42:51;;;;;;;;;;;17.90;88.80;;;;;;5057130;28;20440;-74
2023/08/04 01:45:18;;;;;;;;;;;17.90;88.90;;;;;;5058649;28;19936;-74
2023/08/04 01:47:45;;;;;;;;;;;17.90;88.90;;;;;;5060827;28;19933;-75
2023/08/04 01:50:12;;;;;;;;;;;17.90;88.90;;;;;;5056398;28;19928;-75
2023/08/04 01:52:39;;;;;;;;;;;17.90;88.90;;;;;;5060237;28;19940;-75
2023/08/04 01:55:06;;;;;;;;;;;17.90;89.00;;;;;;5057029;28;19928;-75
2023/08/04 01:57:34;;;;;;;;;;;17.80;88.90;;;;;;5059536;28;19928;-75
2023/08/04 02:00:00;;;;;;;;;;;17.80;88.90;;;;;;5062556;28;19932;-74
2023/08/04 02:02:28;;;;;;;;;;;17.80;88.90;;;;;;5058582;28;19933;-75
2023/08/04 02:04:54;;;;;;;;;;;17.80;88.90;;;;;;5056629;28;20014;-75
2023/08/04 02:07:21;;;;;;;;;;;17.80;88.90;;;;;;5059060;28;20458;-75
2023/08/04 02:09:47;;;;;;;;;;;17.80;88.90;;;;;;5059876;28;20023;-75
2023/08/04 02:12:14;;;;;;;;;;;17.70;88.90;;;;;;5056435;28;19943;-75
2023/08/04 02:14:42;;;;;;;;;;;17.80;89.00;;;;;;5060008;28;19932;-75
2023/08/04 02:17:08;;;;;;;;;;;17.80;89.10;;;;;;5060070;28;19939;-75
2023/08/04 02:19:35;;;;;;;;;;;17.70;89.00;;;;;;5061911;28;19928;-75
2023/08/04 02:22:02;;;;;;;;;;;17.70;89.10;;;;;;5056301;28;20305;-75
2023/08/04 02:24:28;;;;;;;;;;;17.70;89.10;;;;;;5061804;28;20017;-77
2023/08/04 02:26:55;;;;;;;;;;;17.70;89.10;;;;;;5059873;28;20007;-77
2023/08/04 02:29:21;;;;;;;;;;;17.70;89.20;;;;;;5057411;28;19935;-76
2023/08/04 02:31:49;;;;;;;;;;;17.60;89.10;;;;;;5057986;28;19951;-77
2023/08/04 02:34:16;;;;;;;;;;;17.70;89.30;;;;;;5058015;28;19933;-76
2023/08/04 02:36:42;;;;;;;;;;;17.70;89.30;;;;;;5058441;28;20390;-76
2023/08/04 02:39:09;;;;;;;;;;;17.60;89.20;;;;;;5060209;28;20433;-77
2023/08/04 02:41:36;;;;;;;;;;;17.60;89.40;;;;;;5059775;28;19934;-77
2023/08/04 02:44:06;;;;;;;;;;;17.60;89.40;;;;;;5057817;28;20400;-77
2023/08/04 02:46:32;;;;;;;;;;;17.60;89.60;;;;;;5056787;28;20412;-75
2023/08/04 02:49:00;;;;;;;;;;;17.60;89.80;;;;;;5060847;28;20369;-75
2023/08/04 02:51:27;;;;;;;;;;;17.60;90.00;;;;;;5056235;28;19959;-75
2023/08/04 02:53:53;;;;;;;;;;;17.60;90.00;;;;;;5058272;28;19928;-75
2023/08/04 02:56:20;;;;;;;;;;;17.60;90.10;;;;;;5058310;28;19939;-75
2023/08/04 02:58:47;;;;;;;;;;;17.50;90.10;;;;;;5060374;28;19935;-75
2023/08/04 03:01:14;;;;;;;;;;;17.50;90.20;;;;;;5057026;28;20291;-75
2023/08/04 03:03:41;;;;;;;;;;;17.50;90.20;;;;;;5058603;28;19929;-74
2023/08/04 03:06:09;;;;;;;;;;;17.50;90.30;;;;;;5055803;28;19928;-76
2023/08/04 03:08:36;;;;;;;;;;;17.50;90.30;;;;;;5056693;28;19932;-75
2023/08/04 03:11:02;;;;;;;;;;;17.50;90.40;;;;;;5057911;28;20402;-75
2023/08/04 03:13:30;;;;;;;;;;;17.50;90.50;;;;;;5061786;28;19998;-75
2023/08/04 03:15:57;;;;;;;;;;;17.50;90.50;;;;;;5057388;28;19928;-75
2023/08/04 03:18:23;;;;;;;;;;;17.40;90.50;;;;;;5060104;28;19924;-75
2023/08/04 03:20:50;;;;;;;;;;;17.40;90.50;;;;;;5062635;28;19928;-75
2023/08/04 03:23:18;;;;;;;;;;;17.50;90.60;;;;;;5063988;28;19935;-75
2023/08/04 03:25:45;;;;;;;;;;;17.40;90.60;;;;;;5056317;28;20287;-75
2023/08/04 03:28:11;;;;;;;;;;;17.40;90.60;;;;;;5059137;28;19928;-75
2023/08/04 03:30:38;;;;;;;;;;;17.40;90.70;;;;;;5062654;28;19928;-75
2023/08/04 03:33:04;;;;;;;;;;;17.40;90.70;;;;;;5063644;28;20378;-75
2023/08/04 03:35:31;;;;;;;;;;;17.40;90.80;;;;;;5060715;28;19928;-75
2023/08/04 03:37:57;;;;;;;;;;;17.40;90.80;;;;;;5059058;28;19982;-76
2023/08/04 03:40:25;;;;;;;;;;;17.40;90.80;;;;;;5056171;28;19928;-76
2023/08/04 03:42:52;;;;;;;;;;;17.40;90.90;;;;;;5056508;28;20727;-75
2023/08/04 03:45:18;;;;;;;;;;;17.40;90.90;;;;;;5058304;28;19935;-75
2023/08/04 03:47:45;;;;;;;;;;;17.40;90.90;;;;;;5060817;28;20420;-75
2023/08/04 03:50:11;;;;;;;;;;;17.40;91.00;;;;;;5055381;28;19935;-76
2023/08/04 03:52:38;;;;;;;;;;;17.40;91.00;;;;;;5055249;28;19933;-75
2023/08/04 03:55:06;;;;;;;;;;;17.30;91.00;;;;;;5058358;28;19928;-75
2023/08/04 03:57:34;;;;;;;;;;;17.40;91.00;;;;;;5063134;28;19928;-76
2023/08/04 04:00:00;;;;;;;;;;;17.30;91.00;;;;;;5055631;28;19935;-75
2023/08/04 04:02:27;;;;;;;;;;;17.30;91.00;;;;;;5056222;28;19928;-76
2023/08/04 04:04:54;;;;;;;;;;;17.30;91.10;;;;;;5055964;28;19933;-76
2023/08/04 04:07:20;;;;;;;;;;;17.30;91.10;;;;;;5052476;28;19928;-76
2023/08/04 04:09:47;;;;;;;;;;;17.30;91.10;;;;;;5056274;28;19935;-75
2023/08/04 04:12:13;;;;;;;;;;;17.30;91.10;;;;;;5059650;28;19928;-75
2023/08/04 04:14:41;;;;;;;;;;;17.30;91.10;;;;;;5060111;28;19940;-75
2023/08/04 04:17:08;;;;;;;;;;;17.30;91.20;;;;;;5067872;28;19928;-75
2023/08/04 04:19:35;;;;;;;;;;;17.20;91.20;;;;;;5063203;28;20411;-76
2023/08/04 04:22:02;;;;;;;;;;;17.20;91.20;;;;;;5058250;28;20396;-75
2023/08/04 04:24:28;;;;;;;;;;;17.20;91.20;;;;;;5058851;28;19939;-76
2023/08/04 04:26:55;;;;;;;;;;;17.20;91.20;;;;;;5061523;28;19932;-76
2023/08/04 04:29:22;;;;;;;;;;;17.20;91.30;;;;;;5059385;28;19932;-76
2023/08/04 04:31:49;;;;;;;;;;;17.20;91.30;;;;;;5063191;28;19937;-76
2023/08/04 04:34:16;;;;;;;;;;;17.20;91.30;;;;;;5060258;28;19936;-76
2023/08/04 04:36:43;;;;;;;;;;;17.20;91.40;;;;;;5056617;28;19935;-76
2023/08/04 04:39:09;;;;;;;;;;;17.20;91.40;;;;;;5058318;28;19941;-76
2023/08/04 04:41:37;;;;;;;;;;;17.20;91.40;;;;;;5060151;28;19928;-75
2023/08/04 04:44:03;;;;;;;;;;;17.20;91.40;;;;;;5062152;28;20176;-75
2023/08/04 04:46:30;;;;;;;;;;;17.20;91.50;;;;;;5063411;28;19927;-76
2023/08/04 04:48:58;;;;;;;;;;;17.20;91.50;;;;;;5065986;28;20687;-76
2023/08/04 04:51:24;;;;;;;;;;;17.20;91.50;;;;;;5058659;28;19928;-76
2023/08/04 04:53:51;;;;;;;;;;;17.20;91.50;;;;;;5055154;28;19936;-75
2023/08/04 04:56:18;;;;;;;;;;;17.20;91.60;;;;;;5054359;28;19936;-76
2023/08/04 04:58:44;;;;;;;;;;;17.10;91.60;;;;;;5061823;28;20319;-76
2023/08/04 05:01:11;;;;;;;;;;;17.20;91.60;;;;;;5057545;28;19951;-76
2023/08/04 05:03:37;;;;;;;;;;;17.10;91.60;;;;;;5060597;28;19955;-76
2023/08/04 05:06:05;;;;;;;;;;;17.20;91.70;;;;;;5058384;28;19928;-76
2023/08/04 05:08:32;;;;;;;;;;;17.10;91.70;;;;;;5065591;28;19928;-76
2023/08/04 05:10:58;;;;;;;;;;;17.20;91.80;;;;;;5060142;28;19933;-76
2023/08/04 05:13:25;;;;;;;;;;;17.10;91.80;;;;;;5059983;28;19928;-76
2023/08/04 05:15:51;;;;;;;;;;;17.10;91.80;;;;;;5063003;28;20398;-76
2023/08/04 05:18:18;;;;;;;;;;;17.10;91.80;;;;;;5062086;28;20384;-76
2023/08/04 05:20:45;;;;;;;;;;;17.10;91.80;;;;;;5060298;28;19940;-76
2023/08/04 05:23:13;;;;;;;;;;;17.10;91.80;;;;;;5058804;28;20011;-76
2023/08/04 05:25:40;;;;;;;;;;;17.10;91.80;;;;;;5056205;28;19940;-76
2023/08/04 05:28:20;;;;;;;;;;;17.10;91.90;;;;;;5067234;28;19929;-76
2023/08/04 05:30:46;;;;;;;;;;;17.10;91.90;;;;;;5057731;28;19929;-76
2023/08/04 05:33:13;;;;;;;;;;;17.10;91.90;;;;;;5061386;28;19959;-76
2023/08/04 05:35:40;;;;;;;;;;;17.20;92.00;;;;;;5059309;28;19928;-76
2023/08/04 05:38:06;;;;;;;;;;;17.20;92.00;;;;;;5060527;28;20007;-76
2023/08/04 05:40:34;;;;;;;;;;;17.10;92.00;;;;;;5056766;28;19939;-76
2023/08/04 05:43:01;;;;;;;;;;;17.10;92.00;;;;;;5063223;28;19935;-76
2023/08/04 05:45:27;;;;;;;;;;;17.20;92.10;;;;;;5056189;28;19935;-76
2023/08/04 05:47:54;;;;;;;;;;;17.10;92.10;;;;;;5055726;28;19928;-76
2023/08/04 05:50:20;;;;;;;;;;;17.10;92.10;;;;;;5058824;28;19928;-76
2023/08/04 05:52:47;;;;;;;;;;;17.10;92.10;;;;;;5064063;28;19929;-77
2023/08/04 05:55:13;;;;;;;;;;;17.10;92.10;;;;;;5062256;28;19936;-76
2023/08/04 05:57:41;;;;;;;;;;;17.10;92.10;;;;;;5057251;28;19960;-76
2023/08/04 06:00:08;;;;;;;;;;;17.10;92.20;;;;;;5054276;28;19936;-76
2023/08/04 06:02:35;;;;;;;;;;;17.10;92.20;;;;;;5059412;28;19929;-76
2023/08/04 06:05:02;;;;;;;;;;;17.10;92.20;;;;;;5057610;28;19928;-77
2023/08/04 06:07:28;;;;;;;;;;;17.10;92.20;;;;;;5061831;28;19935;-76
2023/08/04 06:09:55;;;;;;;;;;;17.10;92.20;;;;;;5057000;28;19936;-77
2023/08/04 06:12:21;;;;;;;;;;;17.20;92.20;;;;;;5056280;28;20323;-76
2023/08/04 06:14:49;;;;;;;;;;;17.10;92.20;;;;;;5055623;28;19940;-76
2023/08/04 06:17:16;;;;;;;;;;;17.20;92.30;;;;;;5050547;28;20284;-76
2023/08/04 06:19:43;;;;;;;;;;;17.20;92.30;;;;;;5055902;28;19928;-77
2023/08/04 06:22:09;;;;;;;;;;;17.10;92.30;;;;;;5055923;28;19982;-77
2023/08/04 06:24:36;;;;;;;;;;;17.20;92.40;;;;;;5052861;28;19928;-76
2023/08/04 06:27:03;;;;;;;;;;;17.20;92.40;;;;;;5058526;28;20047;-76
2023/08/04 06:29:30;;;;;;;;;;;17.10;92.30;;;;;;5054092;28;19933;-77
2023/08/04 06:31:58;;;;;;;;;;;17.20;92.40;;;;;;5053355;28;19937;-76
2023/08/04 06:34:24;;;;;;;;;;;17.20;92.40;;;;;;5059038;28;19941;-76
2023/08/04 06:36:51;;;;;;;;;;;17.20;92.40;;;;;;5054291;28;20458;-76
2023/08/04 06:39:17;;;;;;;;;;;17.20;92.40;;;;;;5052100;28;20295;-77
2023/08/04 06:41:44;;;;;;;;;;;17.20;92.40;;;;;;5052251;28;19932;-78
2023/08/04 06:44:11;;;;;;;;;;;17.20;92.40;;;;;;5057108;28;19940;-79
2023/08/04 06:46:37;;;;;;;;;;;17.20;92.40;;;;;;5062971;28;19933;-78
2023/08/04 06:49:05;;;;;;;;;;;17.20;92.40;;;;;;5050655;28;19929;-77
2023/08/04 06:51:32;;;;;;;;;;;17.20;92.50;;;;;;5051106;28;19929;-77
2023/08/04 06:53:58;;;;;;;;;;;17.20;92.50;;;;;;5057366;28;20302;-77
2023/08/04 06:56:25;;;;;;;;;;;17.20;92.50;;;;;;5054711;28;19932;-77
2023/08/04 06:58:51;;;;;;;;;;;17.20;92.70;;;;;;5053649;28;19929;-74
2023/08/04 07:01:18;;;;;;;;;;;17.20;92.50;;;;;;5056538;28;20288;-75
2023/08/04 07:03:47;;;;;;;;;;;17.20;92.50;;;;;;5056487;28;19929;-73
2023/08/04 07:06:15;;;;;;;;;;;17.20;92.50;;;;;;5057866;28;20016;-74
2023/08/04 07:08:41;;;;;;;;;;;17.20;92.50;;;;;;5058929;28;19932;-74
2023/08/04 07:11:12;;;;;;;;;;;17.20;92.50;;;;;;5054697;28;19932;-74
2023/08/04 07:13:39;;;;;;;;;;;17.20;92.50;;;;;;5054333;28;19939;-74
2023/08/04 07:16:06;;;;;;;;;;;17.20;92.50;;;;;;5056516;28;19943;-75
2023/08/04 07:18:32;;;;;;;;;;;17.30;92.60;;;;;;5055348;28;19953;-74
2023/08/04 07:21:04;;;;;;;;;;;17.20;92.60;;;;;;5056500;28;20005;-75
2023/08/04 07:23:32;;;;;;;;;;;17.20;92.60;;;;;;5058831;28;19939;-75
2023/08/04 07:25:58;;;;;;;;;;;17.30;92.60;;;;;;5057748;28;19935;-74
2023/08/04 07:28:25;;;;;;;;;;;17.30;92.60;;;;;;5060679;28;20386;-75
2023/08/04 07:30:51;;;;;;;;;;;17.30;92.60;;;;;;5060959;28;19951;-78
2023/08/04 07:33:18;;;;;;;;;;;17.30;92.50;;;;;;5061178;28;20642;-77
2023/08/04 07:35:45;;;;;;;;;;;17.30;92.50;;;;;;5060207;28;20035;-77
2023/08/04 07:38:11;;;;;;;;;;;17.40;92.60;;;;;;5056327;28;19929;-77
2023/08/04 07:40:40;;;;;;;;;;;17.40;92.60;;;;;;5060533;28;19928;-78
2023/08/04 07:43:10;;;;;;;;;;;17.40;92.60;;;;;;5062111;28;19933;-76
2023/08/04 07:45:37;;;;;;;;;;;17.40;92.60;;;;;;5056538;28;19928;-78
2023/08/04 07:48:03;;;;;;;;;;;17.40;92.50;;;;;;5061129;28;20404;-77
2023/08/04 07:50:30;;;;;;;;;;;17.40;92.60;;;;;;5065646;28;19928;-77
2023/08/04 07:52:57;;;;;;;;;;;17.40;92.60;;;;;;5063607;28;20301;-77
2023/08/04 07:55:23;;;;;;;;;;;17.40;92.70;;;;;;5063617;28;20131;-77
2023/08/04 07:57:51;;;;;;;;;;;17.40;92.70;;;;;;5066821;28;19932;-77
2023/08/04 08:00:18;;;;;;;;;;;17.50;92.80;;;;;;5050654;28;19928;-77
2023/08/04 08:02:44;;;;;;;;;;;17.50;92.80;;;;;;5058004;28;20428;-78
2023/08/04 08:05:11;;;;;;;;;;;17.50;92.90;;;;;;5057638;28;19958;-76
2023/08/04 08:07:37;;;;;;;;;;;17.50;93.00;;;;;;5062827;28;19939;-77
2023/08/04 08:10:04;;;;;;;;;;;17.50;93.00;;;;;;5056214;28;19932;-76
2023/08/04 08:12:31;;;;;;;;;;;17.50;93.00;;;;;;5056313;28;19932;-77
2023/08/04 08:14:59;;;;;;;;;;;17.50;93.00;;;;;;5055656;28;19928;-79
2023/08/04 08:17:25;;;;;;;;;;;17.50;93.00;;;;;;5057428;28;20315;-77
2023/08/04 08:19:52;;;;;;;;;;;17.50;93.00;;;;;;5055962;28;21137;-76
2023/08/04 08:22:18;;;;;;;;;;;17.60;93.00;;;;;;5059635;28;20033;-77
2023/08/04 08:24:45;;;;;;;;;;;17.60;93.00;;;;;;5062641;28;19935;-77
2023/08/04 08:27:11;;;;;;;;;;;17.60;93.00;;;;;;5060111;28;19939;-77
2023/08/04 08:29:40;;;;;;;;;;;17.60;93.00;;;;;;5056113;28;19928;-77
2023/08/04 08:32:09;;;;;;;;;;;17.60;93.10;;;;;;5060607;28;20416;-78
2023/08/04 08:34:35;;;;;;;;;;;17.70;93.10;;;;;;5058343;28;19932;-78
2023/08/04 08:37:02;;;;;;;;;;;17.70;93.10;;;;;;5062083;28;20340;-77
2023/08/04 08:39:29;;;;;;;;;;;17.70;93.20;;;;;;5046951;28;19941;-77
2023/08/04 08:41:57;;;;;;;;;;;17.70;93.30;;;;;;5052821;28;19924;-77
2023/08/04 08:44:24;;;;;;;;;;;17.70;93.40;;;;;;5047478;28;19940;-76
2023/08/04 08:46:51;;;;;;;;;;;17.70;93.30;;;;;;5053327;28;19932;-76
2023/08/04 08:49:21;;;;;;;;;;;17.70;93.40;;;;;;5048568;28;19928;-75
2023/08/04 08:51:50;;;;;;;;;;;17.70;93.50;;;;;;5054077;28;19939;-75
2023/08/04 08:54:17;;;;;;;;;;;17.70;93.50;;;;;;5050468;28;19928;-75
2023/08/04 08:56:44;;;;;;;;;;;17.80;93.50;;;;;;5049505;28;19933;-78
2023/08/04 08:59:10;;;;;;;;;;;17.70;93.50;;;;;;5059320;28;19928;-77
2023/08/04 09:01:37;;;;;;;;;;;17.80;93.60;;;;;;5061728;28;19933;-77
2023/08/04 09:04:05;;;;;;;;;;;17.80;93.60;;;;;;5062546;28;19940;-77
2023/08/04 09:06:33;;;;;;;;;;;17.80;93.60;;;;;;5058566;28;19925;-77
2023/08/04 09:09:02;;;;;;;;;;;17.80;93.70;;;;;;5058819;28;20390;-77
2023/08/04 09:11:29;;;;;;;;;;;17.90;93.80;;;;;;5056794;28;19970;-76
2023/08/04 09:13:56;;;;;;;;;;;17.90;93.70;;;;;;5048657;28;19936;-76
2023/08/04 09:16:32;;;;;;;;;;;17.90;93.80;;;;;;5054922;28;19940;-75
2023/08/04 09:19:01;;;;;;;;;;;17.90;93.70;;;;;;5055356;28;20371;-76
2023/08/04 09:21:27;;;;;;;;;;;18.00;93.70;;;;;;5057620;28;19936;-76
2023/08/04 09:23:55;;;;;;;;;;;18.00;93.60;;;;;;5052725;28;19940;-77
2023/08/04 09:26:22;;;;;;;;;;;18.00;93.60;;;;;;5061030;28;19940;-76
2023/08/04 09:29:03;;;;;;;;;;;18.00;93.40;;;;;;5057530;28;20341;-78
2023/08/04 09:31:34;;;;;;;;;;;18.10;93.30;;;;;;5056424;28;19937;-77
2023/08/04 09:34:03;;;;;;;;;;;18.10;93.20;;;;;;5053897;28;20023;-77
2023/08/04 09:36:30;;;;;;;;;;;18.10;93.10;;;;;;5053915;28;19939;-76
2023/08/04 09:39:04;;;;;;;;;;;18.20;93.10;;;;;;5059494;28;19963;-77
2023/08/04 09:41:33;;;;;;;;;;;18.20;93.10;;;;;;5060969;28;19935;-78
2023/08/04 09:44:04;;;;;;;;;;;18.20;93.10;;;;;;5057570;28;19935;-77
2023/08/04 09:46:30;;;;;;;;;;;18.20;93.00;;;;;;5055804;28;20544;-78
2023/08/04 09:48:57;;;;;;;;;;;18.20;93.00;;;;;;5055610;28;19940;-77
2023/08/04 09:51:24;;;;;;;;;;;18.30;93.50;;;;;;5053452;28;19929;-79
2023/08/04 09:53:51;;;;;;;;;;;18.30;93.20;;;;;;5055628;28;19936;-78
2023/08/04 09:56:20;;;;;;;;;;;18.30;93.20;;;;;;5063182;28;20410;-81
2023/08/04 09:58:47;;;;;;;;;;;18.30;93.20;;;;;;5063044;28;19928;-78
2023/08/04 10:01:14;;;;;;;;;;;18.30;93.20;;;;;;5055785;28;20274;-77
2023/08/04 10:03:42;;;;;;;;;;;18.30;93.20;;;;;;5057096;28;19933;-79
2023/08/04 10:06:09;;;;;;;;;;;18.30;93.20;;;;;;5059590;28;20542;-78
2023/08/04 10:08:39;;;;;;;;;;;18.30;93.10;;;;;;5064380;28;19951;-76
2023/08/04 10:11:06;;;;;;;;;;;18.30;93.20;;;;;;5057307;28;19932;-77
2023/08/04 10:13:34;;;;;;;;;;;18.30;93.20;;;;;;5045941;28;19951;-78
2023/08/04 10:16:03;;;;;;;;;;;18.30;93.10;;;;;;5060510;28;19928;-78
2023/08/04 10:18:45;;;;;;;;;;;18.30;93.10;;;;;;5057168;28;19928;-79
2023/08/04 10:21:12;;;;;;;;;;;18.30;93.10;;;;;;5050865;28;19928;-78
2023/08/04 10:23:38;;;;;;;;;;;18.30;93.20;;;;;;5058025;28;19936;-77
2023/08/04 10:26:05;;;;;;;;;;;18.40;93.10;;;;;;5061678;28;19940;-77
2023/08/04 10:28:31;;;;;;;;;;;18.40;93.10;;;;;;5051858;28;19933;-78
2023/08/04 10:31:06;;;;;;;;;;;18.40;93.10;;;;;;5057296;28;19936;-78
2023/08/04 10:33:33;;;;;;;;;;;18.40;93.00;;;;;;5058576;28;19928;-78
2023/08/04 10:36:08;;;;;;;;;;;18.50;92.90;;;;;;5057842;28;20401;-78
2023/08/04 10:38:46;;;;;;;;;;;18.50;92.90;;;;;;5057045;28;20015;-78
2023/08/04 10:41:13;;;;;;;;;;;18.50;93.00;;;;;;5053056;28;19994;-79
2023/08/04 10:43:40;;;;;;;;;;;18.60;92.90;;;;;;5056506;28;19943;-78
2023/08/04 10:46:11;;;;;;;;;;;18.60;92.80;;;;;;5054208;28;20700;-78
2023/08/04 10:48:40;;;;;;;;;;;18.60;92.70;;;;;;5055654;28;19928;-78
2023/08/04 10:51:07;;;;;;;;;;;18.70;92.70;;;;;;5056123;28;19994;-78
2023/08/04 10:53:34;;;;;;;;;;;18.80;92.50;;;;;;5058364;28;19932;-78
2023/08/04 10:56:01;;;;;;;;;;;18.80;92.40;;;;;;5057308;28;19932;-78
2023/08/04 10:58:28;;;;;;;;;;;18.90;92.30;;;;;;5058814;28;20017;-78
2023/08/04 11:00:55;;;;;;;;;;;18.90;92.20;;;;;;5056907;28;19928;-78
2023/08/04 11:03:24;;;;;;;;;;;18.90;92.20;;;;;;5055463;28;19928;-78
2023/08/04 11:05:51;;;;;;;;;;;19.00;92.00;;;;;;5058748;28;20326;-78
2023/08/04 11:08:18;;;;;;;;;;;19.00;92.00;;;;;;5062987;28;19928;-79
2023/08/04 11:10:49;;;;;;;;;;;19.10;91.90;;;;;;5057125;28;20365;-79
2023/08/04 11:13:20;;;;;;;;;;;19.10;91.80;;;;;;5055286;28;19936;-78
2023/08/04 11:15:47;;;;;;;;;;;19.10;91.70;;;;;;5057077;28;19928;-78
2023/08/04 11:18:14;;;;;;;;;;;19.20;91.60;;;;;;5057288;28;20530;-78
2023/08/04 11:20:42;;;;;;;;;;;19.20;91.60;;;;;;5058129;28;19936;-79
2023/08/04 11:23:09;;;;;;;;;;;19.30;91.50;;;;;;5060812;28;19979;-78
2023/08/04 11:25:36;;;;;;;;;;;19.30;91.40;;;;;;5065520;28;19936;-78
2023/08/04 11:28:03;;;;;;;;;;;19.40;91.20;;;;;;5055863;28;19940;-78
2023/08/04 11:30:32;;;;;;;;;;;19.40;91.20;;;;;;5059940;28;20286;-78
2023/08/04 11:32:58;;;;;;;;;;;19.50;91.10;;;;;;5062289;28;19932;-80
2023/08/04 11:35:27;;;;;;;;;;;19.50;91.00;;;;;;5059255;28;19928;-79
2023/08/04 11:37:55;;;;;;;;;;;19.60;90.90;;;;;;5060778;28;20046;-79
2023/08/04 11:40:23;;;;;;;;;;;19.60;90.70;;;;;;5064616;28;19932;-79
2023/08/04 11:42:50;;;;;;;;;;;19.60;90.70;;;;;;5059969;28;19948;-78
2023/08/04 11:45:17;;;;;;;;;;;19.70;90.60;;;;;;5053891;28;19929;-78
2023/08/04 11:47:44;;;;;;;;;;;19.70;90.50;;;;;;5055616;28;19936;-78
2023/08/04 11:50:11;;;;;;;;;;;19.70;90.50;;;;;;5057949;28;19997;-78
2023/08/04 11:52:38;;;;;;;;;;;19.70;90.60;;;;;;5056994;28;19940;-79
2023/08/04 11:55:07;;;;;;;;;;;19.70;90.50;;;;;;5062881;28;19936;-78
2023/08/04 11:57:34;;;;;;;;;;;19.70;90.60;;;;;;5058848;28;19932;-79
2023/08/04 12:00:01;;;;;;;;;;;19.70;90.50;;;;;;5058192;28;19933;-78
2023/08/04 12:02:28;;;;;;;;;;;19.90;90.10;;;;;;5060364;28;19935;-78
2023/08/04 12:05:05;;;;;;;;;;;20.10;89.50;;;;;;5058067;28;19972;-78
2023/08/04 12:07:32;;;;;;;;;;;20.10;89.50;;;;;;5059724;28;19958;-77
2023/08/04 12:09:59;;;;;;;;;;;20.10;89.60;;;;;;5057780;28;20682;-79
2023/08/04 12:12:36;;;;;;;;;;;20.10;90.00;;;;;;5061940;28;19933;-78
2023/08/04 12:15:02;;;;;;;;;;;20.00;90.30;;;;;;5055722;28;19932;-78
2023/08/04 12:17:36;;;;;;;;;;;20.00;90.20;;;;;;5061272;28;19928;-78
2023/08/04 12:20:04;;;;;;;;;;;20.00;90.30;;;;;;5060842;28;19932;-78
2023/08/04 12:22:31;;;;;;;;;;;19.90;90.20;;;;;;5059835;28;19960;-79
2023/08/04 12:24:57;;;;;;;;;;;19.90;90.20;;;;;;5059190;28;19929;-77
2023/08/04 12:27:24;;;;;;;;;;;20.00;90.30;;;;;;5061873;28;20682;-78
2023/08/04 12:29:52;;;;;;;;;;;19.90;90.20;;;;;;5055603;28;19939;-78
2023/08/04 12:32:18;;;;;;;;;;;19.90;90.10;;;;;;5061211;28;19928;-78
2023/08/04 12:34:45;;;;;;;;;;;19.90;90.10;;;;;;5069675;28;20023;-79
2023/08/04 12:37:11;;;;;;;;;;;20.00;89.60;;;;;;5076408;28;19928;-79
2023/08/04 12:39:38;;;;;;;;;;;20.00;89.20;;;;;;5070381;28;19968;-78
2023/08/04 12:42:05;;;;;;;;;;;20.10;89.00;;;;;;5072255;28;19928;-78
2023/08/04 12:44:31;;;;;;;;;;;20.10;90.00;;;;;;5074269;28;19933;-79
2023/08/04 12:46:59;;;;;;;;;;;20.10;89.20;;;;;;5068410;28;19951;-78
2023/08/04 12:49:25;;;;;;;;;;;20.10;89.40;;;;;;5068842;28;19932;-78
2023/08/04 12:51:52;;;;;;;;;;;20.10;89.50;;;;;;5067181;28;20343;-78
2023/08/04 12:54:20;;;;;;;;;;;20.10;89.30;;;;;;5071717;28;19940;-78
2023/08/04 12:56:46;;;;;;;;;;;20.10;89.10;;;;;;5068088;28;20003;-78
2023/08/04 12:59:13;;;;;;;;;;;20.20;89.00;;;;;;5073648;28;19928;-80
2023/08/04 13:01:39;;;;;;;;;;;20.20;88.90;;;;;;5070075;28;19935;-78
2023/08/04 13:04:07;;;;;;;;;;;20.20;89.10;;;;;;5079428;28;19928;-78
2023/08/04 13:06:34;;;;;;;;;;;20.20;88.90;;;;;;5076562;28;19937;-78
2023/08/04 13:09:00;;;;;;;;;;;20.20;88.50;;;;;;5077470;28;20302;-78
2023/08/04 13:11:27;;;;;;;;;;;20.30;88.30;;;;;;5074663;28;20278;-79
2023/08/04 13:13:54;;;;;;;;;;;20.30;88.70;;;;;;5078858;28;19932;-79
2023/08/04 13:16:20;;;;;;;;;;;20.30;88.60;;;;;;5074345;28;19929;-78
2023/08/04 13:18:47;;;;;;;;;;;20.30;88.40;;;;;;5086103;28;19928;-78
2023/08/04 13:21:15;;;;;;;;;;;20.30;88.40;;;;;;5074477;28;20739;-79
2023/08/04 13:23:42;;;;;;;;;;;20.40;88.20;;;;;;5077419;28;19928;-78
2023/08/04 13:26:08;;;;;;;;;;;20.40;87.90;;;;;;5072252;28;19935;-78
2023/08/04 13:28:35;;;;;;;;;;;20.40;87.30;;;;;;5074312;28;19932;-78
2023/08/04 13:31:05;;;;;;;;;;;20.40;87.00;;;;;;5074359;28;19932;-78
2023/08/04 13:33:32;;;;;;;;;;;20.50;86.90;;;;;;5074803;28;19929;-78
2023/08/04 13:35:58;;;;;;;;;;;20.50;86.60;;;;;;5075614;28;19939;-79
2023/08/04 13:38:26;;;;;;;;;;;20.60;86.60;;;;;;5082995;28;19928;-78
2023/08/04 13:40:53;;;;;;;;;;;20.70;86.60;;;;;;5071136;28;19928;-78
2023/08/04 13:43:20;;;;;;;;;;;20.80;86.50;;;;;;5073748;28;19929;-78
2023/08/04 13:45:47;;;;;;;;;;;20.90;86.00;;;;;;5074936;28;20306;-78
2023/08/04 13:48:13;;;;;;;;;;;20.90;85.20;;;;;;5076740;28;20200;-78
2023/08/04 13:50:40;;;;;;;;;;;21.00;85.00;;;;;;5068340;28;19959;-78
2023/08/04 13:53:06;;;;;;;;;;;21.10;85.30;;;;;;5071565;28;19935;-78
2023/08/04 13:55:36;;;;;;;;;;;21.10;84.90;;;;;;5076273;28;19939;-79
2023/08/04 13:58:02;;;;;;;;;;;21.20;84.60;;;;;;5067485;28;19989;-79
2023/08/04 14:00:29;;;;;;;;;;;21.30;84.00;;;;;;5068819;28;19932;-78
2023/08/04 14:02:55;;;;;;;;;;;21.30;83.70;;;;;;5071534;28;19938;-78
2023/08/04 14:05:22;;;;;;;;;;;21.40;84.00;;;;;;5080251;28;19929;-78
2023/08/04 14:07:49;;;;;;;;;;;21.50;84.40;;;;;;5075317;28;19940;-79
2023/08/04 14:10:15;;;;;;;;;;;21.50;83.90;;;;;;5082086;28;19937;-79
2023/08/04 14:12:43;;;;;;;;;;;21.50;83.70;;;;;;5084364;28;19924;-79
2023/08/04 14:15:10;;;;;;;;;;;21.60;82.70;;;;;;5076489;28;19928;-79
2023/08/04 14:17:36;;;;;;;;;;;21.60;82.40;;;;;;5082076;28;19928;-79